Time;durP1;ratioP1;P1;durP2;ratioP2;P2;SDS_P1;SDS_P2;PMS_P1;PMS_P2;Temp;Humidity;BMP_temperature;BMP_pressure;BME280_temperature;BME280_humidity;BME280_pressure;Samples;Min_cycle;Max_cycle;Signal;HPM_P1;HPM_P2
2023/12/22 00:01:15;;;;;;;30.13;5.45;;;5.10;99.90;;;;;;5110763;28;20050;-72
2023/12/22 00:03:42;;;;;;;33.95;6.53;;;5.30;99.90;;;;;;5113445;28;20050;-73
2023/12/22 00:06:08;;;;;;;23.77;4.45;;;5.50;99.90;;;;;;5118004;28;20054;-72
2023/12/22 00:08:33;;;;;;;15.10;3.42;;;5.60;99.90;;;;;;5116544;28;20048;-72
2023/12/22 00:10:59;;;;;;;25.52;3.95;;;5.60;99.90;;;;;;5118876;28;20035;-72
2023/12/22 00:13:25;;;;;;;18.52;3.60;;;5.50;99.90;;;;;;5114868;28;20451;-73
2023/12/22 00:15:50;;;;;;;25.25;4.00;;;5.60;99.90;;;;;;5135226;27;20074;-72
2023/12/22 00:18:16;;;;;;;20.25;3.67;;;5.70;99.90;;;;;;5097630;27;20069;-72
2023/12/22 00:20:42;;;;;;;22.08;3.22;;;5.60;99.90;;;;;;5117743;27;20071;-72
2023/12/22 00:23:07;;;;;;;24.83;4.03;;;5.40;99.90;;;;;;5118058;27;20039;-73
2023/12/22 00:25:33;;;;;;;21.45;3.78;;;5.20;99.90;;;;;;5118136;27;20134;-72
2023/12/22 00:27:59;;;;;;;28.88;4.55;;;5.30;99.90;;;;;;5118789;27;20042;-72
2023/12/22 00:30:25;;;;;;;26.05;4.32;;;5.30;99.90;;;;;;5108061;27;20035;-74
2023/12/22 00:32:50;;;;;;;28.67;4.03;;;5.60;99.90;;;;;;5103794;27;20046;-74
2023/12/22 00:35:17;;;;;;;15.00;3.40;;;5.80;99.90;;;;;;5124158;27;20027;-73
2023/12/22 00:37:42;;;;;;;20.05;3.55;;;5.80;99.90;;;;;;5122396;27;20498;-73
2023/12/22 00:40:09;;;;;;;20.73;3.38;;;5.80;99.90;;;;;;5119739;27;20047;-73
2023/12/22 00:42:35;;;;;;;17.20;3.33;;;6.00;99.90;;;;;;5122924;27;20039;-74
2023/12/22 00:45:01;;;;;;;16.25;2.40;;;6.00;99.90;;;;;;5100133;27;20542;-74
2023/12/22 00:47:27;;;;;;;17.40;2.80;;;5.80;99.90;;;;;;5117707;27;20111;-73
2023/12/22 00:49:53;;;;;;;15.38;2.70;;;5.90;99.90;;;;;;5124216;27;20043;-74
2023/12/22 00:52:19;;;;;;;10.32;1.77;;;5.80;99.90;;;;;;5099972;27;20039;-73
2023/12/22 00:54:45;;;;;;;13.07;2.83;;;5.90;99.90;;;;;;5120362;27;20038;-75
2023/12/22 00:57:11;;;;;;;13.07;2.30;;;6.10;99.90;;;;;;5098406;27;20147;-74
2023/12/22 00:59:37;;;;;;;7.22;1.52;;;6.10;99.90;;;;;;5117019;27;20043;-74
2023/12/22 01:02:02;;;;;;;9.00;1.95;;;5.70;99.90;;;;;;5100827;27;20035;-74
2023/12/22 01:04:28;;;;;;;11.43;1.98;;;5.50;99.90;;;;;;5101489;27;20051;-74
2023/12/22 01:06:54;;;;;;;14.02;2.20;;;5.40;99.90;;;;;;5122236;27;20380;-73
2023/12/22 01:09:20;;;;;;;13.20;2.35;;;5.50;99.90;;;;;;5098923;27;20047;-73
2023/12/22 01:11:46;;;;;;;17.13;2.70;;;5.50;99.90;;;;;;5122621;27;20046;-73
2023/12/22 01:14:13;;;;;;;20.50;3.30;;;5.50;99.90;;;;;;5099749;28;20071;-74
2023/12/22 01:16:39;;;;;;;17.58;2.65;;;5.70;99.90;;;;;;5118925;27;20039;-73
2023/12/22 01:19:05;;;;;;;;;;;5.90;99.90;;;;;;5117555;27;20039;-74
2023/12/22 01:21:31;;;;;;;24.05;3.50;;;5.80;99.90;;;;;;5118745;27;19926;-74
2023/12/22 01:23:58;;;;;;;18.08;3.55;;;5.90;99.90;;;;;;5114814;27;20051;-74
2023/12/22 01:26:24;;;;;;;22.88;4.47;;;5.90;99.90;;;;;;5113592;27;20032;-74
2023/12/22 01:28:50;;;;;;;23.42;3.55;;;6.00;99.90;;;;;;5121742;27;20517;-74
2023/12/22 01:31:15;;;;;;;28.00;4.60;;;6.00;99.90;;;;;;5121574;27;20405;-73
2023/12/22 01:33:41;;;;;;;22.85;3.65;;;5.90;99.90;;;;;;5101736;27;20039;-75
2023/12/22 01:36:07;;;;;;;19.60;3.05;;;6.00;99.90;;;;;;5124770;27;20570;-74
2023/12/22 01:38:32;;;;;;;22.50;3.72;;;6.10;99.90;;;;;;5110623;27;20567;-73
2023/12/22 01:40:58;;;;;;;28.73;4.57;;;6.10;99.90;;;;;;5118802;27;20608;-74
2023/12/22 01:43:24;;;;;;;22.25;3.60;;;6.30;99.90;;;;;;5100780;27;20639;-74
2023/12/22 01:45:56;;;;;;;20.55;3.70;;;6.30;99.90;;;;;;5112786;27;20086;-74
2023/12/22 01:48:26;;;;;;;22.65;4.55;;;6.40;99.90;;;;;;5118235;27;20092;-73
2023/12/22 01:50:53;;;;;;;21.20;3.53;;;6.00;99.90;;;;;;5097925;27;20038;-73
2023/12/22 01:53:24;;;;;;;25.30;3.92;;;5.70;99.90;;;;;;5104570;27;20039;-74
2023/12/22 01:55:51;;;;;;;19.65;3.45;;;5.50;99.90;;;;;;5112554;27;20039;-75
2023/12/22 01:58:19;;;;;;;24.13;3.72;;;5.40;99.90;;;;;;5093009;27;20502;-73
2023/12/22 02:00:45;;;;;;;25.95;4.53;;;5.40;99.90;;;;;;5121148;27;20092;-74
2023/12/22 02:03:12;;;;;;;22.50;4.03;;;5.50;99.90;;;;;;5109732;27;20032;-75
2023/12/22 02:05:40;;;;;;;28.95;4.65;;;5.40;99.90;;;;;;5115967;27;21529;-74
2023/12/22 02:08:06;;;;;;;23.77;5.00;;;5.60;99.90;;;;;;5110899;27;20039;-73
2023/12/22 02:10:31;;;;;;;31.67;5.32;;;5.80;99.90;;;;;;5115283;27;20096;-74
2023/12/22 02:12:57;;;;;;;31.33;5.07;;;5.80;99.90;;;;;;5115216;27;20042;-73
2023/12/22 02:15:23;;;;;;;31.38;4.57;;;5.90;99.90;;;;;;5115537;27;20043;-73
2023/12/22 02:18:04;;;;;;;24.55;3.72;;;6.00;99.90;;;;;;5135537;27;20039;-71
2023/12/22 02:20:31;;;;;;;24.50;3.90;;;5.90;99.90;;;;;;5110050;27;20075;-72
2023/12/22 02:22:57;;;;;;;26.70;3.95;;;5.50;99.90;;;;;;5117700;27;20047;-72
2023/12/22 02:25:22;;;;;;;29.05;4.95;;;5.20;99.90;;;;;;5112819;27;20045;-72
2023/12/22 02:27:50;;;;;;;22.33;3.72;;;5.10;99.90;;;;;;5095162;27;20054;-73
2023/12/22 02:30:39;;;;;;;16.02;3.13;;;5.20;99.90;;;;;;5116567;27;20032;-72
2023/12/22 02:33:06;;;;;;;19.55;4.05;;;5.00;99.90;;;;;;5119415;27;20035;-72
2023/12/22 02:35:36;;;;;;;25.17;4.40;;;5.10;99.90;;;;;;5114962;27;20031;-72
2023/12/22 02:38:03;;;;;;;20.17;3.88;;;5.10;99.90;;;;;;5098848;28;20453;-72
2023/12/22 02:40:30;;;;;;;21.55;3.30;;;5.10;99.90;;;;;;5112396;27;20130;-73
2023/12/22 02:42:56;;;;;;;24.02;3.78;;;5.10;99.90;;;;;;5115204;27;20035;-72
2023/12/22 02:45:22;;;;;;;19.95;3.38;;;5.10;99.90;;;;;;5113102;27;20135;-73
2023/12/22 02:47:48;;;;;;;24.10;3.25;;;5.20;99.90;;;;;;5111312;27;20555;-73
2023/12/22 02:50:16;;;;;;;28.52;3.42;;;5.20;99.90;;;;;;5116666;27;20117;-74
2023/12/22 02:52:42;;;;;;;22.63;3.90;;;5.30;99.90;;;;;;5113154;27;20440;-73
2023/12/22 02:55:08;;;;;;;27.80;4.25;;;5.40;99.90;;;;;;5121851;27;20039;-73
2023/12/22 02:57:34;;;;;;;24.60;4.32;;;5.50;99.90;;;;;;5112347;27;20051;-73
2023/12/22 03:00:00;;;;;;;27.65;3.88;;;5.60;99.90;;;;;;5112972;27;20507;-73
2023/12/22 03:02:26;;;;;;;23.17;3.35;;;5.70;99.90;;;;;;5111314;27;20043;-72
2023/12/22 03:04:51;;;;;;;23.27;4.28;;;5.80;99.90;;;;;;5110695;27;20039;-72
2023/12/22 03:07:17;;;;;;;11.18;1.75;;;5.90;99.90;;;;;;5112039;27;20100;-70
2023/12/22 03:09:43;;;;;;;10.50;1.90;;;4.40;99.90;;;;;;5120819;27;20372;-71
2023/12/22 03:12:10;;;;;;;5.07;1.50;;;3.90;99.90;;;;;;5111973;27;20047;-71
2023/12/22 03:14:36;;;;;;;7.45;2.13;;;3.60;99.90;;;;;;5101674;27;20127;-72
2023/12/22 03:17:03;;;;;;;;;;;4.00;99.90;;;;;;5112215;27;20039;-72
2023/12/22 03:19:28;;;;;;;10.67;2.00;;;4.20;99.90;;;;;;5111529;27;20374;-71
2023/12/22 03:21:56;;;;;;;8.70;1.98;;;3.50;99.90;;;;;;5119141;27;20046;-72
2023/12/22 03:24:23;;;;;;;18.05;3.78;;;3.80;99.90;;;;;;5117216;27;20438;-71
2023/12/22 03:26:53;;;;;;;18.60;3.45;;;3.70;99.90;;;;;;5119006;27;20047;-72
2023/12/22 03:29:19;;;;;;;23.77;2.78;;;4.20;99.90;;;;;;5092399;28;20028;-72
2023/12/22 03:31:46;;;;;;;18.48;3.13;;;3.90;99.90;;;;;;5115789;27;20128;-72
2023/12/22 03:34:12;;;;;;;22.33;4.82;;;3.80;99.90;;;;;;5114919;27;20027;-71
2023/12/22 03:36:38;;;;;;;25.77;4.13;;;4.20;99.90;;;;;;5114397;27;20039;-71
2023/12/22 03:39:04;;;;;;;19.60;3.60;;;4.00;99.90;;;;;;5116273;27;20036;-72
2023/12/22 03:41:31;;;;;;;21.77;3.58;;;4.40;99.90;;;;;;5093569;28;20038;-71
2023/12/22 03:43:57;;;;;;;13.43;3.50;;;4.80;99.90;;;;;;5117893;27;20031;-72
2023/12/22 03:46:23;;;;;;;17.60;2.63;;;4.20;99.90;;;;;;5097357;27;20047;-71
2023/12/22 03:48:52;;;;;;;15.63;2.28;;;4.90;99.90;;;;;;5102185;28;20044;-72
2023/12/22 03:51:17;;;;;;;11.00;2.38;;;4.30;99.90;;;;;;5120841;28;20051;-72
2023/12/22 03:53:43;;;;;;;16.13;3.03;;;5.60;99.90;;;;;;5104536;27;20073;-79
2023/12/22 03:56:09;;;;;;;19.75;2.97;;;5.90;99.90;;;;;;5122820;27;20039;-78
2023/12/22 03:58:35;;;;;;;12.38;3.72;;;5.70;99.90;;;;;;5119271;27;20124;-79
2023/12/22 04:01:01;;;;;;;;;;;3.90;99.90;;;;;;5124829;27;20526;-80
2023/12/22 04:03:27;;;;;;;19.88;3.92;;;4.80;99.90;;;;;;5113127;27;19919;-79
2023/12/22 04:05:53;;;;;;;23.80;3.97;;;5.40;99.90;;;;;;5124227;27;20390;-79
2023/12/22 04:08:20;;;;;;;22.08;5.05;;;6.10;99.90;;;;;;5126765;27;20474;-79
2023/12/22 04:10:46;;;;;;;29.85;5.10;;;4.20;99.90;;;;;;5123161;27;20052;-79
2023/12/22 04:13:12;;;;;;;28.30;5.07;;;5.80;99.90;;;;;;5103526;27;20355;-78
2023/12/22 04:15:38;;;;;;;25.45;5.88;;;5.40;99.90;;;;;;5122942;27;20047;-78
2023/12/22 04:18:04;;;;;;;28.10;5.30;;;4.60;99.90;;;;;;5125987;27;20228;-79
2023/12/22 04:20:29;;;;;;;28.13;4.88;;;6.10;99.90;;;;;;5106681;27;20058;-78
2023/12/22 04:22:55;;;;;;;26.63;4.50;;;5.00;99.90;;;;;;5116811;27;20051;-78
2023/12/22 04:25:22;;;;;;;22.45;5.53;;;5.80;99.90;;;;;;5119871;27;20047;-78
2023/12/22 04:27:49;;;;;;;27.60;5.50;;;6.10;99.90;;;;;;5126999;27;20047;-79
2023/12/22 04:30:15;;;;;;;26.92;5.35;;;5.50;99.90;;;;;;5125343;27;20086;-79
2023/12/22 04:32:41;;;;;;;33.80;5.80;;;5.50;99.90;;;;;;5123931;27;20130;-79
2023/12/22 04:35:07;;;;;;;26.73;5.72;;;5.70;99.90;;;;;;5124545;27;20062;-79
2023/12/22 04:37:33;;;;;;;27.58;4.50;;;6.20;99.90;;;;;;5124795;27;20039;-79
2023/12/22 04:39:58;;;;;;;27.65;4.72;;;6.30;99.90;;;;;;5127171;27;20047;-79
2023/12/22 04:42:25;;;;;;;23.05;3.72;;;6.50;99.90;;;;;;5120924;27;20047;-78
2023/12/22 04:44:51;;;;;;;20.95;3.65;;;6.60;99.90;;;;;;5099414;27;20051;-78
2023/12/22 04:47:18;;;;;;;25.25;4.20;;;6.50;99.90;;;;;;5122734;27;20443;-78
2023/12/22 04:49:44;;;;;;;27.67;4.13;;;6.50;99.90;;;;;;5116437;27;20044;-78
2023/12/22 04:52:11;;;;;;;31.23;5.00;;;6.50;99.90;;;;;;5125691;27;20031;-79
2023/12/22 04:54:36;;;;;;;30.17;4.93;;;6.50;99.90;;;;;;5122360;27;20520;-78
2023/12/22 04:57:02;;;;;;;26.92;5.75;;;6.70;99.90;;;;;;5120171;27;20119;-78
2023/12/22 04:59:28;;;;;;;19.15;3.80;;;6.70;99.90;;;;;;5116577;27;20042;-78
2023/12/22 05:01:54;;;;;;;19.52;3.97;;;6.70;99.90;;;;;;5098632;27;20130;-78
2023/12/22 05:04:19;;;;;;;20.15;4.18;;;6.70;99.90;;;;;;5121436;27;20043;-79
2023/12/22 05:06:45;;;;;;;20.25;3.25;;;6.90;99.90;;;;;;5121822;27;20071;-79
2023/12/22 05:09:12;;;;;;;18.42;3.78;;;6.80;99.90;;;;;;5118443;27;20046;-78
2023/12/22 05:11:38;;;;;;;17.70;3.47;;;6.70;99.90;;;;;;5120100;27;20138;-78
2023/12/22 05:14:04;;;;;;;15.23;2.95;;;6.80;99.90;;;;;;5118326;27;20435;-78
2023/12/22 05:16:31;;;;;;;17.88;3.92;;;7.00;99.90;;;;;;5119772;27;20032;-78
2023/12/22 05:18:57;;;;;;;15.15;3.63;;;7.00;99.90;;;;;;5120762;27;20047;-78
2023/12/22 05:21:24;;;;;;;24.52;5.13;;;7.00;99.90;;;;;;5120150;27;20047;-78
2023/12/22 05:23:50;;;;;;;31.02;5.57;;;6.90;99.90;;;;;;5123300;27;20398;-78
2023/12/22 05:26:22;;;;;;;24.52;3.80;;;6.90;99.90;;;;;;5119832;27;20040;-78
2023/12/22 05:28:51;;;;;;;21.88;3.67;;;6.90;99.90;;;;;;5119551;27;20134;-78
2023/12/22 05:31:17;;;;;;;27.70;4.30;;;6.90;99.90;;;;;;5095395;28;20089;-77
2023/12/22 05:33:43;;;;;;;14.30;3.55;;;6.90;99.90;;;;;;5114900;27;20126;-78
2023/12/22 05:36:08;;;;;;;19.02;3.53;;;7.00;99.90;;;;;;5121350;27;20119;-77
2023/12/22 05:38:40;;;;;;;20.83;3.55;;;7.00;99.90;;;;;;5119706;27;20082;-78
2023/12/22 05:41:06;;;;;;;16.77;3.92;;;6.90;99.90;;;;;;5097216;27;20084;-78
2023/12/22 05:43:33;;;;;;;22.05;4.30;;;7.00;99.90;;;;;;5116260;27;20031;-77
2023/12/22 05:45:59;;;;;;;28.67;5.18;;;7.00;99.90;;;;;;5118945;27;20137;-77
2023/12/22 05:48:26;;;;;;;28.83;5.75;;;7.00;99.90;;;;;;5116580;27;20055;-77
2023/12/22 05:50:51;;;;;;;24.30;3.80;;;7.10;99.90;;;;;;5103124;27;20104;-77
2023/12/22 05:53:17;;;;;;;22.98;3.05;;;7.00;99.90;;;;;;5123583;27;20482;-77
2023/12/22 05:55:43;;;;;;;22.25;4.10;;;7.00;99.90;;;;;;5124791;27;20032;-76
2023/12/22 05:58:08;;;;;;;21.42;3.50;;;7.00;99.90;;;;;;5113022;27;20043;-77
2023/12/22 06:00:35;;;;;;;20.00;3.05;;;7.00;99.90;;;;;;5115947;27;20126;-76
2023/12/22 06:03:01;;;;;;;23.65;3.70;;;7.00;99.90;;;;;;5120512;27;20047;-77
2023/12/22 06:05:27;;;;;;;19.65;3.92;;;7.00;99.90;;;;;;5119135;27;20535;-76
2023/12/22 06:07:53;;;;;;;22.05;3.28;;;7.00;99.90;;;;;;5116956;27;20135;-76
2023/12/22 06:10:19;;;;;;;16.90;3.53;;;7.00;99.90;;;;;;5119625;27;20080;-76
2023/12/22 06:12:44;;;;;;;18.75;3.08;;;7.00;99.90;;;;;;5096480;27;20486;-76
2023/12/22 06:15:10;;;;;;;21.38;3.40;;;6.90;99.90;;;;;;5117353;27;20443;-76
2023/12/22 06:17:36;;;;;;;19.92;3.90;;;6.90;99.90;;;;;;5116539;27;20043;-76
2023/12/22 06:20:01;;;;;;;21.08;4.10;;;6.90;99.90;;;;;;5101141;28;20043;-76
2023/12/22 06:22:27;;;;;;;19.60;3.58;;;7.00;99.90;;;;;;5122857;27;20495;-76
2023/12/22 06:24:53;;;;;;;21.10;3.28;;;6.90;99.90;;;;;;5097790;28;20054;-76
2023/12/22 06:27:18;;;;;;;24.25;5.07;;;7.00;99.90;;;;;;5116181;27;20162;-76
2023/12/22 06:29:44;;;;;;;24.77;3.53;;;7.00;99.90;;;;;;5116362;27;20062;-76
2023/12/22 06:32:10;;;;;;;22.73;3.45;;;7.00;99.90;;;;;;5117838;27;20040;-76
2023/12/22 06:34:35;;;;;;;23.58;4.28;;;7.00;99.90;;;;;;5100818;28;20114;-76
2023/12/22 06:37:01;;;;;;;19.98;3.40;;;7.00;99.90;;;;;;5116277;27;20367;-76
2023/12/22 06:39:27;;;;;;;25.75;4.72;;;7.10;99.90;;;;;;5114107;27;20066;-76
2023/12/22 06:41:52;;;;;;;17.95;3.50;;;7.00;99.90;;;;;;5117142;27;20039;-76
2023/12/22 06:44:18;;;;;;;21.13;3.28;;;7.10;99.90;;;;;;5107154;27;20479;-76
2023/12/22 06:46:44;;;;;;;25.73;4.32;;;7.10;99.90;;;;;;5115168;27;20116;-76
2023/12/22 06:49:10;;;;;;;19.20;3.65;;;7.00;99.90;;;;;;5115744;27;20826;-76
2023/12/22 06:51:36;;;;;;;17.70;3.83;;;7.10;99.90;;;;;;5089757;27;20109;-76
2023/12/22 06:54:03;;;;;;;25.23;4.38;;;7.00;99.90;;;;;;5116990;27;20057;-76
2023/12/22 06:56:33;;;;;;;22.83;3.95;;;7.00;99.90;;;;;;5115598;27;20390;-76
2023/12/22 06:58:59;;;;;;;20.10;3.53;;;7.00;99.90;;;;;;5118052;27;20082;-76
2023/12/22 07:01:29;;;;;;;19.80;3.20;;;7.00;99.90;;;;;;5114763;27;20070;-76
2023/12/22 07:03:55;;;;;;;17.17;2.40;;;7.00;99.90;;;;;;5116878;27;20042;-76
2023/12/22 07:06:22;;;;;;;12.00;1.92;;;7.00;99.90;;;;;;5120406;27;20031;-76
2023/12/22 07:09:19;;;;;;;16.60;3.10;;;7.00;99.90;;;;;;5120850;27;20125;-78
2023/12/22 07:11:50;;;;;;;13.93;2.03;;;7.10;99.90;;;;;;5116177;27;20098;-75
2023/12/22 07:14:16;;;;;;;12.20;2.30;;;7.00;99.90;;;;;;5101606;27;20061;-75
2023/12/22 07:16:42;;;;;;;17.58;3.10;;;7.00;99.90;;;;;;5115654;27;20114;-75
2023/12/22 07:19:08;;;;;;;19.77;2.97;;;7.00;99.90;;;;;;5111590;27;20645;-75
2023/12/22 07:21:34;;;;;;;15.48;3.05;;;7.00;99.90;;;;;;5109333;28;20039;-75
2023/12/22 07:24:00;;;;;;;20.38;3.25;;;7.00;99.90;;;;;;5124135;27;20054;-75
2023/12/22 07:26:29;;;;;;;16.73;2.60;;;7.00;99.90;;;;;;5111706;27;20402;-76
2023/12/22 07:28:55;;;;;;;13.55;2.75;;;7.10;99.90;;;;;;5097523;27;20048;-75
2023/12/22 07:31:21;;;;;;;18.23;3.22;;;7.10;99.90;;;;;;5101946;28;20410;-75
2023/12/22 07:33:46;;;;;;;19.65;3.28;;;7.10;99.90;;;;;;5115068;27;20039;-75
2023/12/22 07:36:12;;;;;;;14.20;2.83;;;7.10;99.90;;;;;;5130994;27;20390;-75
2023/12/22 07:38:41;;;;;;;18.92;2.78;;;7.10;99.90;;;;;;5110184;28;20048;-75
2023/12/22 07:41:07;;;;;;;21.50;3.53;;;7.10;99.90;;;;;;5094279;28;20040;-75
2023/12/22 07:43:33;;;;;;;17.15;3.30;;;7.10;99.90;;;;;;5087655;28;20176;-74
2023/12/22 07:45:59;;;;;;;17.00;2.80;;;7.10;99.90;;;;;;5112390;28;20051;-73
2023/12/22 07:48:24;;;;;;;15.38;3.28;;;7.10;99.90;;;;;;5117950;27;20065;-75
2023/12/22 07:50:50;;;;;;;23.95;3.33;;;7.10;99.90;;;;;;5100083;28;20100;-76
2023/12/22 07:53:16;;;;;;;19.25;2.60;;;7.10;99.90;;;;;;5101472;28;20067;-74
2023/12/22 07:55:43;;;;;;;22.55;3.40;;;7.10;99.90;;;;;;5117348;28;20054;-74
2023/12/22 07:58:08;;;;;;;15.95;2.70;;;7.20;99.90;;;;;;5112305;28;20586;-74
2023/12/22 08:00:34;;;;;;;21.17;3.55;;;7.20;99.90;;;;;;5118309;28;20043;-76
2023/12/22 08:03:00;;;;;;;15.40;3.28;;;7.20;99.90;;;;;;5119803;28;20050;-74
2023/12/22 08:05:26;;;;;;;17.08;3.08;;;7.20;99.90;;;;;;5115576;28;20040;-74
2023/12/22 08:07:52;;;;;;;17.70;3.47;;;7.30;99.90;;;;;;5121300;28;20069;-74
2023/12/22 08:10:18;;;;;;;18.77;2.75;;;7.20;99.90;;;;;;5122707;28;20064;-74
2023/12/22 08:12:43;;;;;;;15.20;3.13;;;7.20;99.90;;;;;;5103316;28;20078;-75
2023/12/22 08:15:12;;;;;;;18.23;2.80;;;7.30;99.90;;;;;;5123729;28;20596;-74
2023/12/22 08:17:49;;;;;;;18.45;3.15;;;7.30;99.90;;;;;;5112573;28;20058;-76
2023/12/22 08:20:21;;;;;;;13.32;2.85;;;7.30;99.90;;;;;;5114241;28;20050;-77
2023/12/22 08:22:48;;;;;;;15.40;2.50;;;7.20;99.90;;;;;;5109583;28;20040;-75
2023/12/22 08:25:14;;;;;;;17.77;3.15;;;7.30;99.90;;;;;;5100554;28;20062;-76
2023/12/22 08:27:40;;;;;;;19.27;3.58;;;7.30;99.90;;;;;;5111785;28;20534;-75
2023/12/22 08:30:06;;;;;;;18.10;3.00;;;7.30;99.90;;;;;;5111062;28;20044;-76
2023/12/22 08:32:32;;;;;;;17.35;3.05;;;7.30;99.90;;;;;;5114281;28;20040;-75
2023/12/22 08:34:58;;;;;;;20.83;3.13;;;7.30;99.90;;;;;;5118182;28;20047;-75
2023/12/22 08:37:23;;;;;;;17.33;3.00;;;7.20;99.90;;;;;;5122639;28;20108;-73
2023/12/22 08:39:50;;;;;;;20.77;3.35;;;7.10;99.90;;;;;;5120277;27;20482;-75
2023/12/22 08:42:17;;;;;;;20.35;3.72;;;7.20;99.90;;;;;;5085688;27;20482;-75
2023/12/22 08:44:42;;;;;;;;;;;7.20;99.90;;;;;;5115449;27;20031;-75
2023/12/22 08:47:08;;;;;;;17.90;3.25;;;7.20;99.90;;;;;;5103810;27;20839;-75
2023/12/22 08:49:34;;;;;;;19.83;3.15;;;7.20;99.90;;;;;;5116935;27;20043;-75
2023/12/22 08:51:59;;;;;;;15.52;2.83;;;7.10;99.90;;;;;;5106801;27;20041;-75
2023/12/22 08:54:26;;;;;;;11.70;2.78;;;7.00;99.90;;;;;;5124565;27;20095;-75
2023/12/22 08:56:52;;;;;;;16.02;3.30;;;7.00;99.90;;;;;;5118759;27;20043;-74
2023/12/22 08:59:18;;;;;;;16.88;2.70;;;6.90;99.90;;;;;;5135560;27;20035;-75
2023/12/22 09:01:43;;;;;;;14.70;2.95;;;6.90;99.90;;;;;;5078282;27;20378;-75
2023/12/22 09:04:11;;;;;;;18.70;3.15;;;6.80;99.90;;;;;;5116638;27;20126;-74
2023/12/22 09:06:37;;;;;;;15.75;2.67;;;6.80;99.90;;;;;;5114752;27;20043;-74
2023/12/22 09:09:03;;;;;;;12.55;3.13;;;6.80;99.90;;;;;;5118426;27;20047;-75
2023/12/22 09:11:30;;;;;;;13.80;2.30;;;6.80;99.90;;;;;;5116359;27;20047;-74
2023/12/22 09:13:55;;;;;;;16.65;2.47;;;6.80;99.90;;;;;;5125539;27;20090;-76
2023/12/22 09:16:22;;;;;;;12.82;2.22;;;6.80;99.90;;;;;;5119650;27;20432;-76
2023/12/22 09:18:49;;;;;;;13.23;2.30;;;6.80;99.90;;;;;;5118161;27;20051;-77
2023/12/22 09:21:15;;;;;;;17.40;2.60;;;6.90;99.90;;;;;;5103521;27;20506;-74
2023/12/22 09:23:45;;;;;;;18.35;3.22;;;6.90;99.90;;;;;;5119007;27;20054;-76
2023/12/22 09:26:10;;;;;;;14.30;2.05;;;6.90;99.90;;;;;;5101094;27;20054;-75
2023/12/22 09:28:36;;;;;;;15.25;2.45;;;7.00;99.90;;;;;;5114375;27;20048;-76
2023/12/22 09:31:05;;;;;;;17.38;3.05;;;7.10;99.90;;;;;;5116299;27;20119;-75
2023/12/22 09:33:31;;;;;;;12.27;2.10;;;7.10;99.90;;;;;;5126215;27;20051;-76
2023/12/22 09:35:57;;;;;;;12.98;2.17;;;7.10;99.90;;;;;;5119254;27;20043;-74
2023/12/22 09:38:23;;;;;;;11.52;2.15;;;7.20;99.90;;;;;;5097333;27;20040;-75
2023/12/22 09:40:50;;;;;;;15.43;2.80;;;7.20;99.90;;;;;;5104361;27;20051;-74
2023/12/22 09:43:18;;;;;;;;;;;7.20;99.90;;;;;;5115252;27;20043;-75
2023/12/22 09:45:45;;;;;;;12.32;2.33;;;7.20;99.90;;;;;;5121237;27;19923;-75
2023/12/22 09:48:17;;;;;;;14.00;2.38;;;7.30;99.90;;;;;;5123284;27;20047;-74
2023/12/22 09:50:46;;;;;;;17.63;2.30;;;7.30;99.90;;;;;;5115143;27;20447;-75
2023/12/22 09:53:13;;;;;;;16.52;2.92;;;7.30;99.90;;;;;;5118269;27;20032;-74
2023/12/22 09:55:42;;;;;;;16.27;2.00;;;7.30;99.90;;;;;;5122135;27;20035;-75
2023/12/22 09:58:10;;;;;;;11.88;2.10;;;7.40;99.90;;;;;;5116059;27;20503;-74
2023/12/22 10:00:38;;;;;;;12.38;2.10;;;7.40;99.90;;;;;;5094057;27;20043;-75
2023/12/22 10:03:07;;;;;;;11.88;2.20;;;7.40;99.90;;;;;;5113219;27;20043;-78
2023/12/22 10:05:33;;;;;;;15.50;2.20;;;7.40;99.90;;;;;;5110348;27;20043;-75
2023/12/22 10:08:01;;;;;;;17.17;1.60;;;7.40;99.90;;;;;;5094097;28;20039;-76
2023/12/22 10:10:29;;;;;;;13.10;2.33;;;7.50;99.90;;;;;;5117020;27;20046;-75
2023/12/22 10:12:55;;;;;;;14.32;1.90;;;7.40;99.90;;;;;;5097583;27;20071;-75
2023/12/22 10:15:23;;;;;;;8.70;2.03;;;7.50;99.90;;;;;;5122245;27;20031;-76
2023/12/22 10:17:51;;;;;;;13.90;2.10;;;7.60;99.90;;;;;;5100305;27;20046;-75
2023/12/22 10:20:17;;;;;;;10.57;2.03;;;7.50;99.90;;;;;;5104289;27;20417;-75
2023/12/22 10:22:42;;;;;;;13.20;1.95;;;7.60;99.90;;;;;;5102218;27;20035;-74
2023/12/22 10:25:08;;;;;;;14.27;1.92;;;7.60;99.90;;;;;;5090696;27;20387;-74
2023/12/22 10:27:36;;;;;;;9.10;2.28;;;7.50;99.90;;;;;;5112123;27;20108;-76
2023/12/22 10:30:03;;;;;;;16.20;2.97;;;7.60;99.90;;;;;;5116406;27;20043;-76
2023/12/22 10:32:29;;;;;;;17.55;2.70;;;7.50;99.90;;;;;;5118520;27;20494;-76
2023/12/22 10:34:59;;;;;;;9.80;1.92;;;7.50;99.90;;;;;;5105456;27;20044;-77
2023/12/22 10:37:25;;;;;;;12.38;2.60;;;7.50;99.90;;;;;;5118009;27;20553;-76
2023/12/22 10:39:54;;;;;;;18.92;2.97;;;7.50;99.90;;;;;;5109233;27;20051;-76
2023/12/22 10:42:20;;;;;;;19.90;3.22;;;7.50;99.90;;;;;;5099309;27;20039;-76
2023/12/22 10:44:47;;;;;;;15.20;3.22;;;7.50;99.90;;;;;;5120838;27;20098;-76
2023/12/22 10:47:13;;;;;;;15.00;2.15;;;7.50;99.90;;;;;;5123783;27;20735;-76
2023/12/22 10:49:39;;;;;;;14.07;2.40;;;7.50;99.90;;;;;;5111106;27;20042;-76
2023/12/22 10:52:05;;;;;;;18.75;2.95;;;7.50;99.90;;;;;;5112632;27;20051;-76
2023/12/22 10:54:31;;;;;;;20.88;2.78;;;7.60;99.90;;;;;;5110963;27;20039;-76
2023/12/22 10:57:00;;;;;;;16.40;2.70;;;7.60;99.90;;;;;;5094629;28;20035;-74
2023/12/22 10:59:32;;;;;;;17.98;2.60;;;7.60;99.90;;;;;;5109769;27;20063;-75
2023/12/22 11:01:58;;;;;;;14.43;2.60;;;7.60;99.90;;;;;;5113136;27;20078;-76
2023/12/22 11:04:35;;;;;;;15.77;2.17;;;7.60;99.90;;;;;;5126597;27;20266;-76
2023/12/22 11:07:03;;;;;;;16.50;2.13;;;7.70;99.90;;;;;;5108047;27;20071;-76
2023/12/22 11:09:32;;;;;;;15.23;2.95;;;7.70;99.90;;;;;;5127402;27;20130;-76
2023/12/22 11:12:00;;;;;;;15.65;2.80;;;7.70;99.90;;;;;;5127168;27;20043;-74
2023/12/22 11:14:27;;;;;;;13.55;3.22;;;7.70;99.90;;;;;;5118231;27;20031;-74
2023/12/22 11:16:53;;;;;;;;;;;7.70;99.90;;;;;;5128791;27;20042;-74
2023/12/22 11:19:20;;;;;;;21.38;2.80;;;7.80;99.90;;;;;;5103866;28;19927;-76
2023/12/22 11:21:47;;;;;;;14.07;2.88;;;7.80;99.90;;;;;;5094422;27;20040;-75
2023/12/22 11:24:14;;;;;;;11.20;1.77;;;7.80;99.90;;;;;;5122034;27;20039;-76
2023/12/22 11:26:45;;;;;;;11.45;2.25;;;7.80;99.90;;;;;;5119343;27;20051;-76
2023/12/22 11:29:12;;;;;;;11.68;2.40;;;7.90;99.90;;;;;;5110421;27;20078;-76
2023/12/22 11:31:40;;;;;;;15.70;2.28;;;7.90;99.90;;;;;;5112203;27;20479;-76
2023/12/22 11:34:07;;;;;;;16.17;2.42;;;7.90;99.90;;;;;;5124064;27;20059;-77
2023/12/22 11:36:35;;;;;;;12.68;2.42;;;7.90;99.90;;;;;;5112377;27;20076;-76
2023/12/22 11:39:02;;;;;;;13.30;2.13;;;7.90;99.90;;;;;;5102739;27;20051;-76
2023/12/22 11:41:33;;;;;;;10.88;2.33;;;8.00;99.90;;;;;;5112495;27;20509;-78
2023/12/22 11:44:01;;;;;;;16.98;2.55;;;7.90;99.90;;;;;;5109370;28;20074;-77
2023/12/22 11:46:27;;;;;;;15.02;3.58;;;7.90;99.90;;;;;;5103795;28;20152;-77
2023/12/22 11:48:55;;;;;;;13.13;2.10;;;7.90;99.90;;;;;;5107298;28;20502;-77
2023/12/22 11:51:21;;;;;;;17.85;5.68;;;7.90;99.90;;;;;;5095446;28;20409;-75
2023/12/22 11:53:47;;;;;;;;;;;7.90;99.90;;;;;;5114492;28;20058;-75
2023/12/22 11:56:13;;;;;;;15.52;4.72;;;7.90;99.90;;;;;;5111437;28;19916;-75
2023/12/22 11:58:50;;;;;;;23.67;8.40;;;7.90;99.90;;;;;;5113827;28;20043;-77
2023/12/22 12:01:18;;;;;;;20.98;6.18;;;7.90;99.90;;;;;;5091978;28;20387;-75
2023/12/22 12:03:55;;;;;;;37.70;14.82;;;8.00;99.90;;;;;;5111086;28;20047;-77
2023/12/22 12:06:27;;;;;;;49.92;20.25;;;7.90;99.90;;;;;;5123635;28;20126;-75
2023/12/22 12:08:53;;;;;;;22.88;8.32;;;8.00;99.90;;;;;;5088649;28;20131;-75
2023/12/22 12:11:19;;;;;;;;;;;8.00;99.90;;;;;;5113761;28;20044;-75
2023/12/22 12:13:46;;;;;;;36.03;11.80;;;8.00;99.90;;;;;;5123504;27;20382;-76
2023/12/22 12:16:13;;;;;;;11.80;2.75;;;8.00;99.90;;;;;;5123088;27;20043;-75
2023/12/22 12:18:40;;;;;;;18.67;3.55;;;7.90;99.90;;;;;;5128939;27;20070;-76
2023/12/22 12:21:06;;;;;;;;;;;7.90;99.90;;;;;;5114889;27;20046;-75
2023/12/22 12:23:32;;;;;;;9.45;2.13;;;7.90;99.90;;;;;;5135057;27;19920;-77
2023/12/22 12:25:57;;;;;;;12.10;2.38;;;7.90;99.90;;;;;;5094519;28;20081;-77
2023/12/22 12:28:31;;;;;;;14.52;3.10;;;7.90;99.90;;;;;;5091997;27;20097;-77
2023/12/22 12:31:10;;;;;;;15.77;2.55;;;7.90;99.90;;;;;;5115423;27;20165;-76
2023/12/22 12:33:36;;;;;;;19.00;3.83;;;7.90;99.90;;;;;;5095722;28;20042;-76
2023/12/22 12:36:05;;;;;;;15.63;2.78;;;7.90;99.90;;;;;;5099496;27;20043;-75
2023/12/22 12:39:09;;;;;;;16.15;2.55;;;7.90;99.90;;;;;;5118895;27;20044;-75
2023/12/22 12:41:46;;;;;;;13.65;3.22;;;7.90;99.90;;;;;;5108672;27;20052;-75
2023/12/22 12:44:12;;;;;;;13.70;2.30;;;7.90;99.90;;;;;;5110844;27;20760;-78
2023/12/22 12:46:42;;;;;;;14.05;2.33;;;7.90;99.90;;;;;;5093832;28;20058;-75
2023/12/22 12:49:11;;;;;;;13.00;1.92;;;7.90;99.90;;;;;;5122281;27;20110;-74